Columbia City, Oregon
Current Conditions -  °F | °C
As of 2:53 PM on Thursday 18 Dec 2014 (Local Time) from KSPB Reporting Station
Light Rain Light Rain  
Wind Chill: 48°   Ceiling: 4000
Heat Index: 48°   Visibility: 10mi
Dew Point: 44°   Wind: 3mph
Humidity: 86%   Direction: 210°SSW
Pressure: 29.85"   Gusts: NA
Location:  45.89°N, 122.81°W
Report Text: KSPB 182253Z AUTO 21003KT 10SM -RA BKN040 OVC050 09/07 A2985 RMK AO2 RAB03 SLP108 P0001 T00890067
Loading
Personal Weather Stations






























Interactive Weather Map New forecast layout! Learn more

10-Day Weather Forecast

Advertisements
Track Severe Weather on mobile